createdAt,value
2023-01-04T00:01:10.433Z,64.80
2023-01-04T00:03:38.434Z,64.80
2023-01-04T00:06:07.595Z,64.70
2023-01-04T00:08:35.537Z,64.80
2023-01-04T00:11:03.653Z,64.60
2023-01-04T00:13:32.916Z,64.70
2023-01-04T00:16:07.239Z,64.60
2023-01-04T00:18:36.063Z,64.50
2023-01-04T00:21:11.131Z,64.50
2023-01-04T00:23:39.258Z,64.40
2023-01-04T00:26:10.410Z,64.40
2023-01-04T00:28:39.851Z,64.30
2023-01-04T00:31:08.415Z,64.40
2023-01-04T00:33:36.307Z,64.20
2023-01-04T00:36:05.389Z,64.20
2023-01-04T00:38:33.654Z,64.20
2023-01-04T00:41:01.536Z,64.10
2023-01-04T00:43:29.385Z,64.20
2023-01-04T00:45:58.710Z,64.10
2023-01-04T00:48:26.643Z,64.10
2023-01-04T00:50:54.506Z,64.00
2023-01-04T00:53:22.523Z,64.00
2023-01-04T00:55:50.405Z,64.20
2023-01-04T00:58:18.302Z,64.70
2023-01-04T01:00:46.176Z,65.00
2023-01-04T01:03:15.461Z,65.20
2023-01-04T01:05:43.432Z,65.30
2023-01-04T01:08:26.432Z,65.40
2023-01-04T01:10:54.377Z,65.40
2023-01-04T01:13:22.557Z,65.30
2023-01-04T01:15:50.466Z,65.40
2023-01-04T01:18:19.722Z,65.20
2023-01-04T01:20:47.721Z,64.60
2023-01-04T01:23:15.942Z,64.60
2023-01-04T01:25:43.929Z,64.30
2023-01-04T01:28:11.812Z,64.60
2023-01-04T01:30:41.764Z,64.60
2023-01-04T01:33:09.806Z,64.50
2023-01-04T01:35:39.020Z,64.60
2023-01-04T01:38:06.868Z,64.40
2023-01-04T01:40:34.764Z,64.60
2023-01-04T01:43:02.656Z,64.30
2023-01-04T01:45:31.747Z,64.30
2023-01-04T01:48:02.870Z,64.40
2023-01-04T01:50:32.960Z,64.30
2023-01-04T01:53:02.173Z,64.20
2023-01-04T01:55:30.360Z,64.00
2023-01-04T01:57:58.595Z,64.40
2023-01-04T02:00:26.539Z,64.00
2023-01-04T02:02:58.992Z,64.10
2023-01-04T02:05:26.916Z,64.10
2023-01-04T02:07:54.882Z,64.20
2023-01-04T02:10:24.181Z,63.70
2023-01-04T02:12:52.551Z,63.50
2023-01-04T02:15:20.625Z,63.60
2023-01-04T02:17:51.822Z,63.30
2023-01-04T02:20:36.191Z,63.20
2023-01-04T02:23:34.035Z,63.40
2023-01-04T02:26:34.652Z,63.20
2023-01-04T02:29:17.734Z,63.40
2023-01-04T02:31:48.375Z,63.40
2023-01-04T02:34:20.093Z,63.40
2023-01-04T02:36:53.097Z,63.40
2023-01-04T02:39:24.562Z,63.40
2023-01-04T02:41:53.711Z,63.20
2023-01-04T02:44:42.265Z,63.20
2023-01-04T02:47:12.373Z,63.20
2023-01-04T02:50:04.010Z,63.10
2023-01-04T02:52:32.783Z,63.10
2023-01-04T02:55:00.668Z,63.00
2023-01-04T02:57:42.358Z,63.10
2023-01-04T03:00:56.355Z,63.20
2023-01-04T03:03:44.853Z,63.10
2023-01-04T03:06:18.074Z,63.00
2023-01-04T03:08:54.930Z,63.00
2023-01-04T03:11:40.630Z,62.90
2023-01-04T03:14:32.343Z,62.90
2023-01-04T03:16:58.729Z,63.00
2023-01-04T03:19:41.897Z,62.90
2023-01-04T03:22:30.030Z,63.00
2023-01-04T03:25:15.319Z,62.80
2023-01-04T03:28:00.943Z,62.50
2023-01-04T03:30:49.026Z,62.60
2023-01-04T03:33:36.877Z,63.40
2023-01-04T03:36:10.064Z,62.70
2023-01-04T03:38:58.555Z,62.90
2023-01-04T03:41:45.069Z,63.10
2023-01-04T03:44:33.407Z,63.40
2023-01-04T03:47:21.474Z,63.10
2023-01-04T03:49:51.246Z,63.40
2023-01-04T03:52:20.446Z,63.20
2023-01-04T03:54:49.093Z,63.20
2023-01-04T03:57:16.995Z,63.20
2023-01-04T03:59:46.719Z,63.00
2023-01-04T04:02:19.071Z,63.40
2023-01-04T04:05:05.025Z,63.40
2023-01-04T04:07:51.725Z,63.40
2023-01-04T04:10:19.592Z,62.80
2023-01-04T04:12:48.762Z,62.80
2023-01-04T04:15:16.791Z,62.50
2023-01-04T04:17:44.680Z,62.30
2023-01-04T04:20:13.264Z,62.10
2023-01-04T04:22:42.509Z,62.00
2023-01-04T04:25:10.847Z,61.90
2023-01-04T04:27:38.717Z,62.80
2023-01-04T04:30:07.742Z,62.10
2023-01-04T04:32:35.655Z,61.80
2023-01-04T04:35:03.512Z,61.70
2023-01-04T04:37:32.090Z,62.00
2023-01-04T04:40:01.322Z,61.70
2023-01-04T04:42:28.235Z,61.80
2023-01-04T04:44:56.142Z,62.10
2023-01-04T04:47:24.051Z,62.10
2023-01-04T04:49:51.936Z,62.10
2023-01-04T04:52:19.857Z,62.20
2023-01-04T04:54:47.686Z,62.30
2023-01-04T04:57:16.908Z,62.20
2023-01-04T04:59:44.773Z,62.00
2023-01-04T05:02:12.770Z,61.90
2023-01-04T05:04:40.799Z,61.90
2023-01-04T05:07:12.389Z,61.70
2023-01-04T05:09:40.767Z,61.70
2023-01-04T05:12:26.201Z,61.70
2023-01-04T05:14:55.397Z,61.80
2023-01-04T05:17:23.270Z,61.60
2023-01-04T05:19:51.086Z,61.60
2023-01-04T05:22:18.914Z,61.70
2023-01-04T05:24:46.778Z,61.50
2023-01-04T05:27:14.663Z,61.50
2023-01-04T05:29:59.946Z,61.50
2023-01-04T05:32:29.185Z,61.50
2023-01-04T05:34:57.040Z,61.50
2023-01-04T05:37:25.704Z,61.50
2023-01-04T05:39:53.572Z,61.80
2023-01-04T05:42:28.012Z,62.10
2023-01-04T05:44:56.490Z,62.30
2023-01-04T05:47:24.389Z,61.90
2023-01-04T05:49:53.646Z,61.50
2023-01-04T05:52:21.716Z,61.30
2023-01-04T05:54:49.568Z,61.30
2023-01-04T05:57:17.639Z,61.50
2023-01-04T05:59:45.807Z,61.30
2023-01-04T06:02:18.294Z,61.50
2023-01-04T06:04:46.412Z,61.50
2023-01-04T06:07:15.884Z,61.50
2023-01-04T06:09:43.786Z,61.70
2023-01-04T06:12:11.993Z,61.50
2023-01-04T06:14:39.896Z,61.90
2023-01-04T06:17:07.911Z,61.80
2023-01-04T06:19:36.063Z,61.60
2023-01-04T06:22:04.176Z,61.50
2023-01-04T06:24:34.019Z,61.50
2023-01-04T06:27:01.967Z,61.50
2023-01-04T06:29:29.848Z,61.40
2023-01-04T06:31:57.690Z,60.60
2023-01-04T06:34:30.899Z,60.70
2023-01-04T06:36:59.483Z,60.80
2023-01-04T06:39:27.335Z,61.00
2023-01-04T06:42:02.062Z,61.30
2023-01-04T06:44:33.570Z,62.40
2023-01-04T06:47:01.448Z,61.60
2023-01-04T06:49:29.281Z,62.40
2023-01-04T06:51:57.191Z,62.40
2023-01-04T06:54:25.088Z,62.30
2023-01-04T06:56:52.921Z,62.40
2023-01-04T06:59:22.151Z,62.40
2023-01-04T07:01:50.121Z,62.50
2023-01-04T07:04:18.170Z,62.50
2023-01-04T07:06:46.128Z,62.60
2023-01-04T07:09:14.050Z,62.70
2023-01-04T07:11:41.939Z,62.70
2023-01-04T07:14:09.816Z,62.70
2023-01-04T07:16:39.149Z,62.50
2023-01-04T07:19:08.799Z,62.30
2023-01-04T07:21:36.701Z,62.20
2023-01-04T07:24:04.722Z,62.00
2023-01-04T07:26:32.595Z,62.00
2023-01-04T07:29:15.668Z,61.90
2023-01-04T07:31:46.052Z,61.90
2023-01-04T07:34:14.145Z,61.80
2023-01-04T07:36:41.996Z,61.60
2023-01-04T07:39:12.580Z,61.50
2023-01-04T07:41:40.944Z,61.60
2023-01-04T07:44:10.333Z,61.50
2023-01-04T07:46:38.409Z,62.50
2023-01-04T07:49:13.039Z,61.60
2023-01-04T07:51:44.358Z,61.60
2023-01-04T07:54:12.469Z,61.50
2023-01-04T07:56:40.405Z,61.50
2023-01-04T07:59:08.557Z,61.50
2023-01-04T08:01:38.455Z,61.50
2023-01-04T08:04:07.949Z,61.50
2023-01-04T08:06:35.891Z,61.50
2023-01-04T08:09:03.872Z,61.40
2023-01-04T08:11:32.098Z,61.40
2023-01-04T08:13:59.972Z,61.40
2023-01-04T08:16:31.509Z,61.50
2023-01-04T08:19:00.123Z,61.40
2023-01-04T08:21:29.513Z,61.40
2023-01-04T08:23:57.522Z,61.40
2023-01-04T08:26:25.398Z,61.40
2023-01-04T08:28:53.350Z,61.40
2023-01-04T08:31:22.509Z,61.30
2023-01-04T08:33:50.977Z,61.30
2023-01-04T08:36:26.317Z,61.30
2023-01-04T08:39:00.918Z,61.30
2023-01-04T08:44:18.898Z,61.40
2023-01-04T08:46:46.891Z,61.50
2023-01-04T08:49:14.846Z,61.50
2023-01-04T08:51:42.779Z,61.50
2023-01-04T08:54:12.055Z,61.70
2023-01-04T08:56:40.053Z,62.20
2023-01-04T08:59:08.496Z,62.20
2023-01-04T09:01:36.648Z,61.90
2023-01-04T09:04:04.683Z,61.90
2023-01-04T09:06:32.568Z,62.00
2023-01-04T09:09:00.437Z,62.20
2023-01-04T09:11:29.688Z,62.30
2023-01-04T09:14:06.435Z,62.30
2023-01-04T09:16:35.826Z,62.10
2023-01-04T09:19:03.826Z,62.00
2023-01-04T09:21:31.849Z,61.90
2023-01-04T09:23:59.750Z,61.80
2023-01-04T09:26:28.997Z,61.70
2023-01-04T09:28:57.360Z,61.50
2023-01-04T09:31:26.466Z,61.50
2023-01-04T09:36:42.725Z,61.50
2023-01-04T09:39:16.715Z,61.50
2023-01-04T09:41:50.700Z,61.40
2023-01-04T09:44:23.061Z,61.30
2023-01-04T09:46:52.507Z,61.20
2023-01-04T09:49:21.956Z,61.20
2023-01-04T09:51:53.975Z,61.10
2023-01-04T09:54:22.791Z,61.10
2023-01-04T09:56:52.696Z,61.00
2023-01-04T09:59:23.784Z,61.00
2023-01-04T10:01:54.217Z,60.90
2023-01-04T10:04:24.909Z,60.90
2023-01-04T10:06:53.085Z,60.90
2023-01-04T10:09:20.979Z,60.80
2023-01-04T10:11:59.342Z,60.80
2023-01-04T10:14:33.848Z,60.80
2023-01-04T10:17:13.553Z,60.70
2023-01-04T10:22:45.657Z,60.60
2023-01-04T10:25:22.190Z,60.60
2023-01-04T10:27:57.461Z,60.70
2023-01-04T10:30:30.367Z,60.60
2023-01-04T10:33:09.683Z,60.60
2023-01-04T10:35:37.638Z,60.80
2023-01-04T10:38:11.024Z,60.70
2023-01-04T10:40:40.282Z,60.60
2023-01-04T10:43:14.151Z,60.60
2023-01-04T10:45:44.550Z,60.60
2023-01-04T10:48:15.576Z,60.50
2023-01-04T10:50:48.122Z,60.50
2023-01-04T10:53:18.025Z,60.50
2023-01-04T10:56:23.755Z,60.40
2023-01-04T10:58:38.694Z,60.40
2023-01-04T11:01:08.339Z,60.40
2023-01-04T11:03:38.520Z,60.40
2023-01-04T11:06:10.480Z,60.40
2023-01-04T11:08:40.907Z,60.40
2023-01-04T11:11:10.744Z,60.40
2023-01-04T11:13:40.015Z,60.40
2023-01-04T11:16:08.678Z,60.20
2023-01-04T11:18:37.848Z,60.30
2023-01-04T11:21:06.427Z,60.20
2023-01-04T11:23:34.313Z,60.10
2023-01-04T11:26:04.224Z,60.10
2023-01-04T11:28:35.469Z,60.00
2023-01-04T11:31:06.699Z,60.00
2023-01-04T11:33:56.048Z,60.10
2023-01-04T11:36:42.377Z,59.90
2023-01-04T11:39:19.060Z,60.00
2023-01-04T11:42:02.276Z,59.90
2023-01-04T11:44:31.293Z,60.00
2023-01-04T11:47:14.303Z,60.00
2023-01-04T11:49:42.191Z,60.00
2023-01-04T11:52:18.491Z,60.00
2023-01-04T11:54:46.384Z,60.10
2023-01-04T11:57:19.606Z,61.20
2023-01-04T11:59:48.080Z,60.30
2023-01-04T12:02:59.402Z,60.30
2023-01-04T12:05:26.162Z,60.20
2023-01-04T12:07:57.197Z,60.20
2023-01-04T12:10:26.846Z,60.10
2023-01-04T12:12:55.193Z,60.20
2023-01-04T12:15:27.531Z,60.10
2023-01-04T12:17:57.937Z,60.20
2023-01-04T12:20:28.237Z,60.00
2023-01-04T12:22:56.164Z,60.00
2023-01-04T12:25:33.966Z,60.00
2023-01-04T12:28:01.867Z,59.90
2023-01-04T12:30:37.863Z,59.80
2023-01-04T12:33:41.481Z,59.80
2023-01-04T12:36:09.786Z,59.80
2023-01-04T12:39:22.502Z,59.80
2023-01-04T12:42:24.710Z,59.70
2023-01-04T12:45:22.605Z,59.60
2023-01-04T12:48:09.414Z,59.50
2023-01-04T12:51:31.686Z,59.50
2023-01-04T12:54:03.699Z,59.50
2023-01-04T12:57:05.446Z,59.50
2023-01-04T12:59:34.839Z,59.50
2023-01-04T13:02:20.255Z,59.50
2023-01-04T13:04:48.449Z,59.50
2023-01-04T13:07:22.136Z,59.50
2023-01-04T13:09:54.441Z,59.50
2023-01-04T13:12:46.388Z,59.60
2023-01-04T13:15:19.678Z,59.60
2023-01-04T13:17:47.767Z,59.60
2023-01-04T13:20:17.839Z,59.60
2023-01-04T13:22:49.895Z,59.70
2023-01-04T13:25:19.198Z,59.60
2023-01-04T13:27:59.924Z,59.70
2023-01-04T13:30:32.568Z,59.60
2023-01-04T13:33:25.772Z,59.60
2023-01-04T13:36:00.545Z,59.60
2023-01-04T13:38:28.567Z,59.60
2023-01-04T13:40:57.831Z,59.50
2023-01-04T13:43:56.558Z,59.50
2023-01-04T13:46:24.488Z,59.60
2023-01-04T13:48:54.070Z,59.50
2023-01-04T13:51:29.117Z,59.50
2023-01-04T13:54:01.574Z,59.50
2023-01-04T13:56:31.760Z,59.50
2023-01-04T13:58:59.671Z,59.50
2023-01-04T14:01:28.370Z,59.50
2023-01-04T14:03:56.890Z,59.50
2023-01-04T14:06:28.938Z,60.40
2023-01-04T14:09:00.116Z,59.50
2023-01-04T14:11:48.418Z,59.50
2023-01-04T14:14:30.208Z,59.50
2023-01-04T14:17:22.072Z,59.60
2023-01-04T14:19:51.740Z,59.60
2023-01-04T14:22:25.540Z,59.60
2023-01-04T14:25:10.396Z,59.60
2023-01-04T14:27:41.047Z,59.50
2023-01-04T14:30:23.663Z,59.50
2023-01-04T14:32:55.809Z,59.50
2023-01-04T14:35:23.868Z,59.50
2023-01-04T14:37:51.762Z,59.50
2023-01-04T14:40:23.955Z,59.50
2023-01-04T14:42:53.173Z,59.50
2023-01-04T14:45:21.039Z,59.40
2023-01-04T14:47:48.929Z,59.50
2023-01-04T14:50:17.730Z,59.40
2023-01-04T14:52:51.588Z,59.40
2023-01-04T14:55:19.631Z,59.40
2023-01-04T14:57:47.502Z,59.40
2023-01-04T15:00:19.747Z,59.30
2023-01-04T15:02:50.374Z,59.30
2023-01-04T15:05:20.236Z,60.30
2023-01-04T15:07:48.385Z,59.20
2023-01-04T15:10:20.714Z,59.20
2023-01-04T15:12:48.614Z,59.20
2023-01-04T15:15:17.964Z,59.10
2023-01-04T15:17:45.921Z,59.10
2023-01-04T15:20:14.055Z,59.00
2023-01-04T15:22:42.046Z,59.30
2023-01-04T15:25:11.258Z,59.40
2023-01-04T15:27:42.446Z,59.70
2023-01-04T15:30:11.657Z,59.80
2023-01-04T15:32:41.039Z,59.70
2023-01-04T15:35:09.489Z,59.70
2023-01-04T15:37:37.462Z,59.70
2023-01-04T15:40:06.264Z,59.70
2023-01-04T15:42:51.816Z,60.60
2023-01-04T15:45:21.097Z,59.80
2023-01-04T15:47:50.317Z,59.80
2023-01-04T15:50:18.398Z,59.80
2023-01-04T15:52:46.332Z,59.90
2023-01-04T15:55:14.962Z,59.90
2023-01-04T15:57:44.285Z,60.00
2023-01-04T16:00:13.556Z,60.00
2023-01-04T16:02:41.579Z,60.00
2023-01-04T16:05:11.173Z,60.10
2023-01-04T16:07:39.148Z,60.10
2023-01-04T16:10:08.028Z,60.20
2023-01-04T16:12:48.650Z,60.20
2023-01-04T16:15:21.644Z,60.20
2023-01-04T16:17:49.690Z,60.20
2023-01-04T16:20:19.341Z,60.20
2023-01-04T16:22:47.411Z,60.40
2023-01-04T16:25:15.357Z,60.30
2023-01-04T16:27:43.959Z,60.10
2023-01-04T16:30:13.499Z,59.90
2023-01-04T16:32:42.473Z,59.90
2023-01-04T16:35:10.827Z,60.10
2023-01-04T16:37:40.094Z,60.20
2023-01-04T16:40:09.733Z,60.30
2023-01-04T16:42:38.107Z,60.50
2023-01-04T16:45:06.766Z,60.60
2023-01-04T16:47:39.441Z,60.60
2023-01-04T16:50:08.088Z,60.70
2023-01-04T16:52:35.987Z,60.70
2023-01-04T16:55:06.102Z,60.90
2023-01-04T16:57:33.964Z,61.10
2023-01-04T17:00:01.917Z,61.20
2023-01-04T17:02:30.006Z,61.30
2023-01-04T17:04:59.789Z,61.40
2023-01-04T17:07:32.681Z,61.50
2023-01-04T17:10:01.412Z,61.70
2023-01-04T17:12:48.140Z,61.80
2023-01-04T17:15:42.947Z,61.90
2023-01-04T17:18:05.536Z,62.70
2023-01-04T17:20:33.485Z,62.90
2023-01-04T17:23:01.345Z,62.90
2023-01-04T17:25:29.302Z,62.60
2023-01-04T17:27:58.500Z,62.40
2023-01-04T17:30:26.369Z,62.40
2023-01-04T17:32:54.331Z,62.40
2023-01-04T17:35:22.217Z,62.60
2023-01-04T17:37:50.065Z,63.40
2023-01-04T17:40:22.961Z,64.70
2023-01-04T17:42:51.203Z,63.80
2023-01-04T17:45:20.539Z,63.30
2023-01-04T17:47:48.607Z,63.40
2023-01-04T17:50:18.122Z,63.90
2023-01-04T17:52:47.489Z,64.30
2023-01-04T17:55:15.582Z,64.80
2023-01-04T18:00:16.784Z,65.20
2023-01-04T18:02:46.057Z,65.00
2023-01-04T18:05:14.052Z,64.70
2023-01-04T18:07:41.930Z,65.10
2023-01-04T18:10:20.579Z,65.50
2023-01-04T18:12:54.743Z,65.20
2023-01-04T18:15:22.621Z,65.90
2023-01-04T18:17:51.831Z,65.70
2023-01-04T18:20:25.067Z,65.70
2023-01-04T18:22:53.309Z,65.40
2023-01-04T18:25:34.439Z,65.50
2023-01-04T18:28:03.045Z,65.80
2023-01-04T18:30:30.908Z,65.70
2023-01-04T18:33:00.162Z,65.50
2023-01-04T18:35:28.061Z,65.40
2023-01-04T18:37:55.934Z,65.30
2023-01-04T18:40:23.877Z,65.30
2023-01-04T18:42:52.035Z,65.30
2023-01-04T18:45:20.124Z,65.30
2023-01-04T18:47:48.018Z,65.20
2023-01-04T18:50:17.631Z,65.20
2023-01-04T18:52:45.713Z,65.30
2023-01-04T18:55:13.612Z,65.20
2023-01-04T18:57:41.556Z,65.20
2023-01-04T19:00:10.488Z,65.10
2023-01-04T19:02:38.628Z,65.30
2023-01-04T19:05:07.622Z,65.20
2023-01-04T19:07:40.236Z,65.10
2023-01-04T19:10:09.156Z,65.00
2023-01-04T19:12:38.811Z,64.90
2023-01-04T19:15:08.333Z,66.30
2023-01-04T19:17:36.284Z,69.50
2023-01-04T19:20:04.480Z,71.20
2023-01-04T19:22:32.490Z,72.80
2023-01-04T19:25:01.799Z,74.40
2023-01-04T19:27:29.826Z,74.80
2023-01-04T19:29:57.740Z,72.70
2023-01-04T19:32:31.492Z,72.40
2023-01-04T19:35:01.266Z,71.00
2023-01-04T19:37:29.389Z,71.70
2023-01-04T19:39:57.326Z,73.20
2023-01-04T19:42:26.555Z,71.60
2023-01-04T19:44:54.424Z,72.50
2023-01-04T19:47:22.374Z,73.20
2023-01-04T19:49:50.303Z,73.30
2023-01-04T19:52:18.306Z,73.50
2023-01-04T19:54:46.186Z,73.00
2023-01-04T19:57:14.075Z,71.20
2023-01-04T19:59:43.355Z,70.40
2023-01-04T20:02:11.831Z,70.20
2023-01-04T20:04:39.891Z,70.60
2023-01-04T20:07:07.760Z,70.80
2023-01-04T20:09:35.819Z,70.40
2023-01-04T20:12:03.749Z,70.50
2023-01-04T20:14:32.063Z,70.30
2023-01-04T20:17:01.809Z,70.00
2023-01-04T20:19:29.851Z,70.00
2023-01-04T20:21:58.812Z,70.00
2023-01-04T20:24:26.683Z,69.80
2023-01-04T20:26:54.550Z,70.50
2023-01-04T20:29:22.409Z,70.40
2023-01-04T20:31:50.332Z,70.90
2023-01-04T20:34:19.596Z,71.00
2023-01-04T20:36:47.765Z,71.10
2023-01-04T20:39:15.667Z,71.70
2023-01-04T20:42:03.534Z,71.70
2023-01-04T20:44:30.405Z,72.10
2023-01-04T20:46:58.249Z,72.30
2023-01-04T20:49:27.458Z,72.10
2023-01-04T20:51:55.433Z,72.10
2023-01-04T20:54:23.297Z,72.30
2023-01-04T20:56:51.168Z,72.30
2023-01-04T20:59:19.081Z,72.30
2023-01-04T21:01:47.021Z,72.10
2023-01-04T21:04:17.591Z,73.60
2023-01-04T21:06:46.860Z,74.00
2023-01-04T21:09:14.791Z,74.00
2023-01-04T21:11:42.664Z,73.70
2023-01-04T21:14:11.879Z,73.20
2023-01-04T21:16:41.300Z,72.80
2023-01-04T21:19:09.358Z,73.00
2023-01-04T21:21:37.229Z,73.10
2023-01-04T21:24:07.003Z,73.00
2023-01-04T21:26:34.905Z,73.00
2023-01-04T21:29:02.773Z,72.90
2023-01-04T21:31:30.716Z,73.00
2023-01-04T21:33:58.634Z,72.80
2023-01-04T21:36:27.996Z,73.20
2023-01-04T21:38:56.994Z,73.50
2023-01-04T21:41:26.533Z,73.50
2023-01-04T21:43:55.383Z,73.60
2023-01-04T21:46:23.443Z,73.60
2023-01-04T21:48:53.921Z,73.70
2023-01-04T21:51:21.828Z,73.60
2023-01-04T21:53:49.740Z,73.70
2023-01-04T21:56:18.968Z,73.80
2023-01-04T21:58:48.271Z,73.90
2023-01-04T22:01:17.046Z,73.80
2023-01-04T22:03:45.062Z,73.80
2023-01-04T22:06:14.034Z,73.60
2023-01-04T22:08:43.079Z,73.60
2023-01-04T22:11:11.311Z,73.40
2023-01-04T22:13:39.217Z,73.50
2023-01-04T22:16:09.362Z,73.30
2023-01-04T22:18:37.310Z,73.30
2023-01-04T22:21:05.411Z,73.20
2023-01-04T22:23:33.447Z,72.80
2023-01-04T22:26:01.404Z,72.60
2023-01-04T22:28:34.720Z,72.30
2023-01-04T22:31:06.227Z,72.20
2023-01-04T22:33:35.795Z,72.10
2023-01-04T22:36:07.098Z,71.90
2023-01-04T22:38:35.775Z,71.90
2023-01-04T22:41:07.150Z,71.70
2023-01-04T22:43:35.387Z,71.50
2023-01-04T22:46:03.622Z,71.50
2023-01-04T22:48:31.658Z,71.60
2023-01-04T22:51:00.904Z,71.40
2023-01-04T22:53:28.825Z,71.50
2023-01-04T22:58:51.666Z,71.30
2023-01-04T23:01:20.903Z,71.30
2023-01-04T23:03:49.111Z,71.30
2023-01-04T23:06:18.480Z,71.30
2023-01-04T23:08:46.403Z,71.40
2023-01-04T23:11:15.826Z,71.30
2023-01-04T23:13:43.848Z,71.40
2023-01-04T23:16:13.132Z,71.40
2023-01-04T23:18:41.139Z,71.50
2023-01-04T23:21:09.135Z,71.40
2023-01-04T23:23:38.484Z,71.40
2023-01-04T23:26:06.857Z,71.40
2023-01-04T23:28:36.897Z,71.50
2023-01-04T23:31:05.021Z,71.40
2023-01-04T23:33:36.343Z,71.40
2023-01-04T23:36:08.784Z,71.40
2023-01-04T23:38:38.196Z,71.40
2023-01-04T23:41:06.462Z,71.30
2023-01-04T23:43:35.632Z,71.30
2023-01-04T23:46:07.001Z,71.00
2023-01-04T23:48:34.838Z,71.10
2023-01-04T23:51:02.725Z,71.00
2023-01-04T23:53:30.580Z,70.80
2023-01-04T23:56:01.965Z,70.90
2023-01-04T23:58:31.288Z,70.90
